Time;durP1;ratioP1;P1;durP2;ratioP2;P2;SDS_P1;SDS_P2;PMS_P1;PMS_P2;Temp;Humidity;BMP_temperature;BMP_pressure;BME280_temperature;BME280_humidity;BME280_pressure;Samples;Min_cycle;Max_cycle;Signal;HPM_P1;HPM_P2
2022/07/17 00:02:05;;;;;;;0.50;0.50;;;11.10;99.90;;;;;;4952508;28;20086;-77
2022/07/17 00:04:31;;;;;;;0.50;0.50;;;11.00;99.90;;;;;;4951398;28;20078;-77
2022/07/17 00:06:56;;;;;;;0.40;0.40;;;11.00;99.90;;;;;;4956919;28;20051;-77
2022/07/17 00:09:22;;;;;;;0.50;0.50;;;10.90;99.90;;;;;;4951121;28;20126;-77
2022/07/17 00:11:48;;;;;;;0.40;0.40;;;10.80;99.90;;;;;;4950609;28;20060;-75
2022/07/17 00:14:13;;;;;;;0.35;0.35;;;10.80;99.90;;;;;;4952339;28;20890;-75
2022/07/17 00:16:39;;;;;;;0.40;0.40;;;10.70;99.90;;;;;;4944097;28;20043;-77
2022/07/17 00:19:06;;;;;;;0.30;0.30;;;10.70;99.90;;;;;;4935160;28;20460;-76
2022/07/17 00:21:32;;;;;;;0.40;0.40;;;10.70;99.90;;;;;;4957200;28;20127;-77
2022/07/17 00:23:58;;;;;;;0.50;0.50;;;10.70;99.90;;;;;;4962288;28;20062;-76
2022/07/17 00:26:24;;;;;;;0.40;0.40;;;10.60;99.90;;;;;;4967573;28;20049;-75
2022/07/17 00:28:49;;;;;;;0.30;0.30;;;10.60;99.90;;;;;;4966645;28;20039;-75
2022/07/17 00:31:15;;;;;;;0.30;0.30;;;10.60;99.90;;;;;;4954306;28;20074;-76
2022/07/17 00:33:41;;;;;;;0.43;0.43;;;10.50;99.90;;;;;;4966868;28;20051;-77
2022/07/17 00:36:07;;;;;;;0.47;0.47;;;10.60;99.90;;;;;;4955216;28;20046;-76
2022/07/17 00:38:33;;;;;;;;;;;10.50;99.90;;;;;;4952896;28;20480;-76
2022/07/17 00:40:59;;;;;;;0.30;0.30;;;10.50;99.90;;;;;;4949221;28;20039;-77
2022/07/17 00:43:26;;;;;;;0.50;0.50;;;10.40;99.90;;;;;;4935276;28;20134;-78
2022/07/17 00:46:00;;;;;;;0.43;0.43;;;10.40;99.90;;;;;;4950980;28;20051;-76
2022/07/17 00:48:27;;;;;;;0.40;0.40;;;10.40;99.90;;;;;;4951048;28;20055;-74
2022/07/17 00:50:53;;;;;;;0.60;0.60;;;10.30;99.90;;;;;;4952994;28;20370;-74
2022/07/17 00:53:19;;;;;;;0.30;0.30;;;10.30;99.90;;;;;;4950333;28;20043;-78
2022/07/17 00:55:47;;;;;;;0.40;0.40;;;10.30;99.90;;;;;;4958259;28;20065;-77
2022/07/17 00:58:24;;;;;;;0.50;0.50;;;10.30;99.90;;;;;;4952442;28;20050;-77
2022/07/17 01:00:52;;;;;;;0.40;0.40;;;10.30;99.90;;;;;;4964536;28;20630;-75
2022/07/17 01:03:20;;;;;;;0.50;0.50;;;10.30;99.90;;;;;;4957135;28;20047;-75
2022/07/17 01:05:46;;;;;;;0.40;0.40;;;10.40;99.90;;;;;;4957250;28;20049;-74
2022/07/17 01:08:11;;;;;;;;;;;10.40;99.90;;;;;;4950416;28;20562;-76
2022/07/17 01:10:38;;;;;;;0.50;0.50;;;10.40;99.90;;;;;;4949293;28;19922;-75
2022/07/17 01:13:04;;;;;;;;;;;10.40;99.90;;;;;;4950236;28;20091;-75
2022/07/17 01:15:35;;;;;;;0.40;0.40;;;10.40;99.90;;;;;;4961877;28;19918;-76
2022/07/17 01:18:07;;;;;;;0.50;0.50;;;10.30;99.90;;;;;;4951436;28;20042;-76
2022/07/17 01:20:32;;;;;;;0.40;0.40;;;10.30;99.90;;;;;;4950208;28;20082;-77
2022/07/17 01:22:58;;;;;;;0.47;0.47;;;10.30;99.90;;;;;;4951924;28;20089;-77
2022/07/17 01:25:24;;;;;;;0.40;0.40;;;10.30;99.90;;;;;;4949104;28;20079;-73
2022/07/17 01:27:50;;;;;;;0.40;0.40;;;10.40;99.90;;;;;;4943127;29;20058;-76
2022/07/17 01:30:16;;;;;;;0.47;0.47;;;10.40;99.90;;;;;;4954647;28;20047;-75
2022/07/17 01:32:42;;;;;;;0.40;0.40;;;10.40;99.90;;;;;;4941364;28;20082;-76
2022/07/17 01:35:11;;;;;;;0.60;0.60;;;10.40;99.90;;;;;;4955657;28;20058;-76
2022/07/17 01:37:38;;;;;;;0.40;0.40;;;10.40;99.90;;;;;;4949844;28;20430;-75
2022/07/17 01:40:05;;;;;;;0.50;0.50;;;10.50;99.90;;;;;;4948630;28;20047;-76
2022/07/17 01:42:31;;;;;;;0.50;0.50;;;10.40;99.90;;;;;;4949564;28;20055;-74
2022/07/17 01:44:57;;;;;;;0.40;0.40;;;10.40;99.90;;;;;;4950066;28;20055;-75
2022/07/17 01:47:22;;;;;;;;;;;10.40;99.90;;;;;;4933664;28;20512;-76
2022/07/17 01:49:52;;;;;;;0.80;0.65;;;10.40;99.90;;;;;;4950104;28;19919;-77
2022/07/17 01:52:18;;;;;;;0.40;0.40;;;10.40;99.90;;;;;;4949509;28;20477;-74
2022/07/17 01:54:44;;;;;;;0.40;0.40;;;10.40;99.90;;;;;;4950586;28;20050;-75
2022/07/17 01:57:11;;;;;;;0.38;0.38;;;10.40;99.90;;;;;;4954283;28;20047;-77
2022/07/17 01:59:38;;;;;;;0.40;0.40;;;10.40;99.90;;;;;;4957828;28;20092;-77
2022/07/17 02:02:05;;;;;;;0.45;0.45;;;10.40;99.90;;;;;;4956844;28;20485;-75
2022/07/17 02:04:32;;;;;;;0.40;0.40;;;10.40;99.90;;;;;;4949615;28;20126;-74
2022/07/17 02:06:58;;;;;;;0.40;0.40;;;10.40;99.90;;;;;;4955582;28;20112;-76
2022/07/17 02:09:24;;;;;;;0.40;0.40;;;10.40;99.90;;;;;;4917219;29;20043;-76
2022/07/17 02:11:49;;;;;;;0.50;0.50;;;10.30;99.90;;;;;;4948764;28;20091;-75
2022/07/17 02:14:16;;;;;;;0.43;0.43;;;10.30;99.90;;;;;;4951178;28;20086;-74
2022/07/17 02:16:42;;;;;;;0.50;0.50;;;10.80;99.90;;;;;;4958981;28;20043;-75
2022/07/17 02:19:07;;;;;;;0.73;0.73;;;10.30;99.90;;;;;;4933178;29;20074;-75
2022/07/17 02:21:35;;;;;;;0.40;0.40;;;10.30;99.90;;;;;;4951076;28;20047;-77
2022/07/17 02:24:01;;;;;;;0.52;0.52;;;10.20;99.90;;;;;;4934633;28;20058;-76
2022/07/17 02:26:26;;;;;;;0.65;0.65;;;10.20;99.90;;;;;;4955273;28;20050;-73
2022/07/17 02:28:52;;;;;;;0.40;0.40;;;10.20;99.90;;;;;;4954454;28;20122;-76
2022/07/17 02:31:17;;;;;;;0.47;0.47;;;10.10;99.90;;;;;;4951491;28;20044;-74
2022/07/17 02:33:43;;;;;;;0.50;0.50;;;10.10;99.90;;;;;;4962579;28;20473;-75
2022/07/17 02:36:09;;;;;;;0.40;0.40;;;10.10;99.90;;;;;;4948679;28;20043;-75
2022/07/17 02:38:35;;;;;;;0.40;0.40;;;10.10;99.90;;;;;;4949079;28;20048;-74
2022/07/17 02:41:00;;;;;;;0.40;0.40;;;10.00;99.90;;;;;;4934929;28;20061;-73
2022/07/17 02:43:26;;;;;;;0.40;0.40;;;9.90;99.90;;;;;;4958653;28;20047;-76
2022/07/17 02:45:52;;;;;;;0.45;0.45;;;9.90;99.90;;;;;;4950488;28;20480;-77
2022/07/17 02:48:17;;;;;;;0.30;0.30;;;9.90;99.90;;;;;;4948637;28;20082;-75
2022/07/17 02:50:43;;;;;;;0.40;0.40;;;9.80;99.90;;;;;;4934082;28;20070;-74
2022/07/17 02:53:09;;;;;;;0.30;0.30;;;9.80;99.90;;;;;;4948940;28;20039;-76
2022/07/17 02:55:35;;;;;;;0.50;0.50;;;9.80;99.90;;;;;;4953282;28;20039;-76
2022/07/17 02:58:00;;;;;;;0.40;0.40;;;9.80;99.90;;;;;;4950518;28;20568;-76
2022/07/17 03:00:26;;;;;;;0.32;0.32;;;9.70;99.90;;;;;;4962057;28;20041;-74
2022/07/17 03:02:52;;;;;;;0.40;0.40;;;9.70;99.90;;;;;;4956645;28;20049;-77
2022/07/17 03:05:18;;;;;;;0.47;0.47;;;9.80;99.90;;;;;;4951977;28;20134;-76
2022/07/17 03:07:44;;;;;;;0.30;0.30;;;9.80;99.90;;;;;;4951913;28;20046;-77
2022/07/17 03:10:10;;;;;;;0.50;0.50;;;9.80;99.90;;;;;;4952406;28;20079;-74
2022/07/17 03:12:36;;;;;;;;;;;9.80;99.90;;;;;;4936171;28;20500;-74
2022/07/17 03:15:03;;;;;;;0.40;0.40;;;9.80;99.90;;;;;;4939587;28;19968;-74
2022/07/17 03:17:29;;;;;;;0.50;0.50;;;9.80;99.90;;;;;;4952819;28;20043;-76
2022/07/17 03:19:54;;;;;;;0.50;0.50;;;9.80;99.90;;;;;;4952011;28;20479;-76
2022/07/17 03:22:20;;;;;;;0.40;0.40;;;9.80;99.90;;;;;;4954859;28;20047;-73
2022/07/17 03:24:46;;;;;;;0.40;0.40;;;9.90;99.90;;;;;;4951011;28;20092;-76
2022/07/17 03:27:11;;;;;;;0.30;0.30;;;9.90;99.90;;;;;;4954413;28;20089;-75
2022/07/17 03:29:37;;;;;;;0.40;0.40;;;9.90;99.90;;;;;;4944212;28;20039;-75
2022/07/17 03:32:03;;;;;;;0.40;0.40;;;10.00;99.90;;;;;;4963600;28;20184;-75
2022/07/17 03:34:29;;;;;;;0.40;0.40;;;10.10;99.90;;;;;;4944248;28;20047;-77
2022/07/17 03:36:54;;;;;;;0.32;0.32;;;10.00;99.90;;;;;;4950607;28;20058;-76
2022/07/17 03:39:20;;;;;;;0.77;0.77;;;10.10;99.90;;;;;;4949487;28;20493;-74
2022/07/17 03:41:46;;;;;;;0.35;0.35;;;10.20;99.90;;;;;;4954981;28;20396;-77
2022/07/17 03:44:11;;;;;;;0.40;0.40;;;10.30;99.90;;;;;;4951202;28;20051;-74
2022/07/17 03:46:37;;;;;;;0.40;0.40;;;10.30;99.90;;;;;;4952865;28;20055;-76
2022/07/17 03:49:03;;;;;;;0.40;0.40;;;10.40;99.90;;;;;;4952873;28;20101;-75
2022/07/17 03:51:29;;;;;;;0.43;0.43;;;10.40;99.90;;;;;;4955137;28;20046;-74
2022/07/17 03:53:54;;;;;;;0.30;0.30;;;10.50;99.90;;;;;;4935244;28;20146;-77
2022/07/17 03:56:20;;;;;;;0.40;0.40;;;10.60;99.90;;;;;;4959563;28;20051;-76
2022/07/17 03:58:46;;;;;;;0.40;0.40;;;10.60;99.90;;;;;;4953959;28;20039;-77
2022/07/17 04:01:12;;;;;;;0.30;0.30;;;10.70;99.90;;;;;;4936125;28;20392;-76
2022/07/17 04:03:37;;;;;;;0.35;0.35;;;10.80;99.90;;;;;;4951129;28;20126;-76
2022/07/17 04:06:03;;;;;;;0.40;0.40;;;10.90;99.90;;;;;;4958981;28;20043;-75
2022/07/17 04:08:29;;;;;;;0.40;0.40;;;10.90;99.90;;;;;;4936904;28;20062;-76
2022/07/17 04:10:55;;;;;;;;;;;11.00;99.90;;;;;;4961668;28;20074;-75
2022/07/17 04:13:21;;;;;;;0.40;0.40;;;11.10;99.90;;;;;;4962966;28;19923;-74
2022/07/17 04:15:49;;;;;;;0.70;0.70;;;11.20;99.90;;;;;;4968546;28;20059;-75
2022/07/17 04:18:20;;;;;;;0.50;0.50;;;11.30;99.90;;;;;;4953793;28;20043;-74
2022/07/17 04:20:46;;;;;;;0.35;0.35;;;11.40;99.90;;;;;;4952502;28;20051;-77
2022/07/17 04:23:12;;;;;;;0.40;0.40;;;11.40;99.90;;;;;;4954233;28;20511;-76
2022/07/17 04:25:38;;;;;;;0.40;0.40;;;11.60;99.90;;;;;;4961514;28;20379;-76
2022/07/17 04:28:04;;;;;;;0.52;0.52;;;11.70;99.90;;;;;;4964937;28;20050;-76
2022/07/17 04:30:30;;;;;;;0.38;0.38;;;11.90;99.90;;;;;;4956598;28;20046;-77
2022/07/17 04:32:56;;;;;;;0.40;0.40;;;12.00;99.90;;;;;;4962818;28;20057;-74
2022/07/17 04:35:22;;;;;;;0.43;0.43;;;11.90;99.90;;;;;;4951416;28;20055;-76
2022/07/17 04:37:48;;;;;;;0.40;0.40;;;12.10;99.90;;;;;;4951763;28;20062;-74
2022/07/17 04:40:13;;;;;;;0.30;0.30;;;12.00;99.90;;;;;;4933629;29;20170;-75
2022/07/17 04:42:39;;;;;;;0.35;0.35;;;12.10;99.90;;;;;;4954519;28;20116;-75
2022/07/17 04:45:06;;;;;;;0.30;0.30;;;12.10;99.90;;;;;;4952147;28;20050;-77
2022/07/17 04:47:31;;;;;;;0.50;0.50;;;12.20;99.90;;;;;;4950690;28;20505;-75
2022/07/17 04:49:57;;;;;;;0.30;0.30;;;12.40;99.90;;;;;;4959811;28;20051;-76
2022/07/17 04:52:23;;;;;;;0.40;0.40;;;12.40;99.90;;;;;;4954571;28;20042;-76
2022/07/17 04:54:48;;;;;;;0.30;0.30;;;12.50;99.90;;;;;;4941550;28;20443;-77
2022/07/17 04:57:14;;;;;;;0.82;0.82;;;12.40;99.90;;;;;;4953868;28;20129;-76
2022/07/17 04:59:40;;;;;;;0.57;0.57;;;12.40;99.90;;;;;;4963412;28;20043;-74
2022/07/17 05:02:05;;;;;;;0.40;0.40;;;12.50;99.90;;;;;;4950714;28;20047;-76
2022/07/17 05:04:31;;;;;;;0.30;0.30;;;12.50;99.90;;;;;;4950559;28;20076;-74
2022/07/17 05:06:57;;;;;;;0.32;0.32;;;12.60;99.90;;;;;;4944065;29;20400;-77
2022/07/17 05:09:23;;;;;;;0.30;0.30;;;12.60;99.90;;;;;;4949938;28;20108;-77
2022/07/17 05:11:48;;;;;;;0.82;0.82;;;12.70;99.90;;;;;;4949800;28;20576;-76
2022/07/17 05:14:14;;;;;;;0.40;0.40;;;12.70;99.90;;;;;;4951890;28;20058;-77
2022/07/17 05:16:40;;;;;;;0.30;0.30;;;12.90;99.90;;;;;;4965629;28;20050;-76
2022/07/17 05:19:06;;;;;;;0.95;0.95;;;13.00;99.90;;;;;;4951373;28;20043;-75
2022/07/17 05:21:31;;;;;;;0.50;0.50;;;12.90;99.90;;;;;;4958469;28;20484;-74
2022/07/17 05:23:57;;;;;;;0.40;0.40;;;12.90;99.90;;;;;;4949449;28;20043;-74
2022/07/17 05:26:26;;;;;;;0.30;0.30;;;13.10;99.90;;;;;;4956508;28;20062;-75
2022/07/17 05:28:52;;;;;;;0.30;0.30;;;13.10;99.90;;;;;;4956093;28;20047;-77
2022/07/17 05:31:18;;;;;;;0.35;0.35;;;13.20;99.90;;;;;;4957290;28;20051;-74
2022/07/17 05:33:44;;;;;;;0.30;0.30;;;13.50;99.90;;;;;;4963266;28;20500;-73
2022/07/17 05:36:09;;;;;;;0.30;0.30;;;13.80;99.90;;;;;;4956396;28;20473;-76
2022/07/17 05:38:37;;;;;;;0.20;0.20;;;;;;;;;;4950472;28;20054;-75
2022/07/17 05:41:03;;;;;;;0.30;0.30;;;14.30;99.90;;;;;;4936483;28;20401;-75
2022/07/17 05:43:28;;;;;;;0.25;0.25;;;13.80;99.90;;;;;;4950190;28;20042;-77
2022/07/17 05:45:57;;;;;;;2.30;1.08;;;14.10;99.90;;;;;;4951093;28;20096;-74
2022/07/17 05:48:24;;;;;;;0.40;0.40;;;;;;;;;;4949637;28;20078;-77
2022/07/17 05:50:50;;;;;;;0.40;0.40;;;;;;;;;;4952950;28;20130;-77
2022/07/17 05:53:16;;;;;;;;;;;;;;;;;;4949432;28;20512;-77
2022/07/17 05:55:42;;;;;;;0.30;0.30;;;;;;;;;;4948891;28;19973;-74
2022/07/17 05:58:08;;;;;;;;;;;;;;;;;;4952271;28;20063;-73
2022/07/17 06:00:34;;;;;;;0.30;0.30;;;;;;;;;;4951838;28;19918;-75
2022/07/17 06:03:01;;;;;;;0.20;0.20;;;;;;;;;;4949839;28;20101;-76
2022/07/17 06:05:27;;;;;;;0.22;0.22;;;;;;;;;;4956459;28;20120;-73
2022/07/17 06:07:53;;;;;;;;;;;;;;;;;;4950748;28;20039;-78
2022/07/17 06:10:19;;;;;;;0.52;0.52;;;;;;;;;;4952263;28;19918;-74
2022/07/17 06:12:45;;;;;;;0.43;0.43;;;;;;;;;;4949799;28;20062;-73
2022/07/17 06:15:11;;;;;;;0.50;0.50;;;;;;;;;;4958843;28;20435;-74
2022/07/17 06:17:38;;;;;;;0.30;0.30;;;;;;;;;;4950400;28;20051;-74
2022/07/17 06:20:04;;;;;;;;;;;;;;;;;;4956945;28;20404;-76
2022/07/17 06:22:30;;;;;;;0.60;0.60;;;;;;;;;;4952964;28;19926;-75
2022/07/17 06:24:56;;;;;;;;;;;;;;;;;;4949654;28;20051;-76
2022/07/17 06:27:22;;;;;;;0.30;0.30;;;;;;;;;;4951280;28;19926;-75
2022/07/17 06:29:48;;;;;;;0.30;0.30;;;15.50;99.90;;;;;;4953053;28;20051;-75
2022/07/17 06:32:14;;;;;;;0.30;0.30;;;15.70;99.90;;;;;;4954428;28;20043;-73
2022/07/17 06:34:40;;;;;;;0.38;0.38;;;15.90;99.90;;;;;;4960883;28;20499;-77
2022/07/17 06:37:06;;;;;;;;;;;16.10;99.90;;;;;;4950340;28;20039;-74
2022/07/17 06:39:31;;;;;;;1.50;1.40;;;16.10;99.90;;;;;;4966662;28;19973;-72
2022/07/17 06:41:58;;;;;;;0.30;0.30;;;15.90;99.90;;;;;;4965483;28;20059;-74
2022/07/17 06:44:24;;;;;;;0.40;0.40;;;16.10;99.90;;;;;;4954696;28;20047;-74
2022/07/17 06:46:49;;;;;;;;;;;15.90;99.90;;;;;;4928869;29;20383;-74
2022/07/17 06:49:15;;;;;;;0.30;0.30;;;16.10;99.90;;;;;;4953057;28;20005;-77
2022/07/17 06:51:41;;;;;;;;;;;16.20;99.90;;;;;;4953741;28;20478;-74
2022/07/17 06:54:07;;;;;;;0.38;0.38;;;16.00;99.90;;;;;;4952528;28;20395;-74
2022/07/17 06:56:33;;;;;;;0.30;0.30;;;16.10;99.90;;;;;;4969029;28;20062;-75
2022/07/17 06:58:58;;;;;;;0.40;0.40;;;16.10;99.90;;;;;;4956888;28;20047;-75
2022/07/17 07:01:24;;;;;;;;;;;16.10;99.90;;;;;;4958674;28;20046;-73
2022/07/17 07:03:49;;;;;;;0.38;0.38;;;16.20;99.90;;;;;;4954204;28;20383;-75
2022/07/17 07:06:15;;;;;;;;;;;16.20;99.90;;;;;;4946022;28;20046;-77
2022/07/17 07:08:41;;;;;;;1.00;0.98;;;16.40;99.90;;;;;;4951797;28;19925;-76
2022/07/17 07:11:07;;;;;;;0.30;0.30;;;16.40;99.90;;;;;;4951257;28;20047;-77
2022/07/17 07:13:33;;;;;;;0.20;0.20;;;16.60;99.90;;;;;;4936218;28;20481;-74
2022/07/17 07:15:59;;;;;;;;;;;16.60;99.90;;;;;;4964562;28;20053;-77
2022/07/17 07:18:25;;;;;;;0.40;0.40;;;16.80;99.90;;;;;;4959493;28;19965;-74
2022/07/17 07:20:51;;;;;;;;;;;17.00;99.90;;;;;;4953710;28;20077;-78
2022/07/17 07:23:17;;;;;;;0.30;0.30;;;17.10;99.90;;;;;;4972647;28;20455;-73
2022/07/17 07:25:44;;;;;;;;;;;17.00;99.90;;;;;;4952843;28;20050;-75
2022/07/17 07:28:09;;;;;;;0.10;0.10;;;17.00;99.90;;;;;;4959994;28;20288;-77
2022/07/17 07:30:35;;;;;;;;;;;17.10;99.90;;;;;;4957171;28;20039;-74
2022/07/17 07:33:01;;;;;;;0.20;0.20;;;17.40;99.90;;;;;;4964846;28;19922;-77
2022/07/17 07:35:26;;;;;;;;;;;17.40;99.90;;;;;;4953766;28;20060;-76
2022/07/17 07:37:52;;;;;;;0.30;0.30;;;17.60;99.90;;;;;;4959273;28;20000;-77
2022/07/17 07:40:18;;;;;;;;;;;17.80;99.90;;;;;;4964591;28;20058;-76
2022/07/17 07:42:44;;;;;;;1.65;0.82;;;17.80;99.90;;;;;;4959949;28;19985;-75
2022/07/17 07:45:09;;;;;;;;;;;18.00;99.90;;;;;;4957747;28;20465;-76
2022/07/17 07:47:47;;;;;;;0.17;0.17;;;18.00;99.90;;;;;;4951308;28;20017;-76
2022/07/17 07:50:14;;;;;;;0.20;0.20;;;18.00;99.90;;;;;;4951838;28;20504;-76
2022/07/17 07:52:40;;;;;;;0.20;0.20;;;18.20;99.90;;;;;;4953920;28;20047;-73
2022/07/17 07:55:08;;;;;;;0.30;0.30;;;18.10;99.90;;;;;;4940231;28;20075;-76
2022/07/17 07:57:34;;;;;;;0.20;0.20;;;18.20;99.90;;;;;;4957548;28;20047;-75
2022/07/17 08:00:00;;;;;;;0.40;0.40;;;18.20;99.90;;;;;;4980130;28;20047;-77
2022/07/17 08:02:25;;;;;;;;;;;17.90;99.90;;;;;;4963627;28;20385;-77
2022/07/17 08:04:51;;;;;;;0.38;0.35;;;17.90;99.90;;;;;;4953316;28;19925;-77
2022/07/17 08:07:17;;;;;;;;;;;17.70;99.90;;;;;;4959210;28;20047;-74
2022/07/17 08:09:42;;;;;;;0.20;0.20;;;17.50;99.90;;;;;;4964225;28;19919;-76
2022/07/17 08:12:08;;;;;;;;;;;17.60;99.90;;;;;;4936808;29;20405;-73
2022/07/17 08:14:33;;;;;;;0.40;0.40;;;17.60;99.90;;;;;;4955268;28;19963;-74
2022/07/17 08:16:59;;;;;;;;;;;17.70;99.90;;;;;;4958967;28;20540;-71
2022/07/17 08:19:25;;;;;;;0.95;0.95;;;17.90;99.90;;;;;;4957301;28;20295;-73
2022/07/17 08:21:50;;;;;;;;;;;17.80;99.90;;;;;;4959888;28;20047;-74
2022/07/17 08:24:16;;;;;;;0.20;0.20;;;17.70;99.90;;;;;;4958481;28;19922;-76
2022/07/17 08:26:42;;;;;;;;;;;17.70;99.90;;;;;;4966875;28;20392;-74
2022/07/17 08:29:08;;;;;;;0.60;0.60;;;17.80;99.90;;;;;;4956486;28;19941;-77
2022/07/17 08:31:33;;;;;;;;;;;17.90;99.90;;;;;;4958640;28;20474;-75
2022/07/17 08:33:59;;;;;;;0.30;0.30;;;17.90;99.90;;;;;;4967020;28;19922;-74
2022/07/17 08:36:25;;;;;;;;;;;18.00;99.90;;;;;;4952669;28;20069;-75
2022/07/17 08:38:51;;;;;;;0.40;0.40;;;18.00;99.90;;;;;;4950662;28;20380;-78
2022/07/17 08:41:16;;;;;;;;;;;18.00;99.90;;;;;;4944321;28;20148;-74
2022/07/17 08:43:44;;;;;;;0.30;0.30;;;18.00;99.90;;;;;;4958796;28;20383;-76
2022/07/17 08:46:12;;;;;;;0.20;0.20;;;18.00;99.90;;;;;;4950937;28;20051;-74
2022/07/17 08:48:44;;;;;;;0.30;0.30;;;18.30;99.90;;;;;;4951677;28;20530;-75
2022/07/17 08:51:11;;;;;;;0.30;0.30;;;18.50;99.90;;;;;;4954324;28;20042;-73
2022/07/17 08:53:37;;;;;;;0.30;0.30;;;18.50;99.90;;;;;;4951025;28;20054;-76
2022/07/17 08:56:03;;;;;;;0.22;0.22;;;18.60;99.90;;;;;;4960550;28;20092;-74
2022/07/17 08:58:29;;;;;;;0.20;0.20;;;18.60;99.90;;;;;;4951751;28;20044;-75
2022/07/17 09:00:56;;;;;;;2.83;0.68;;;18.60;99.90;;;;;;4952822;28;20191;-73
2022/07/17 09:03:23;;;;;;;0.30;0.30;;;18.60;99.90;;;;;;4950551;28;20566;-75
2022/07/17 09:05:49;;;;;;;0.22;0.22;;;18.70;99.90;;;;;;4957104;28;20073;-75
2022/07/17 09:08:21;;;;;;;0.30;0.30;;;18.80;99.90;;;;;;4950495;28;20405;-75
2022/07/17 09:10:53;;;;;;;1.90;0.52;;;18.90;99.90;;;;;;4949045;28;20047;-75
2022/07/17 09:13:31;;;;;;;0.60;0.60;;;19.00;99.90;;;;;;4950110;28;20086;-75
2022/07/17 09:16:15;;;;;;;0.20;0.20;;;19.00;99.90;;;;;;4960484;28;20047;-76
2022/07/17 09:18:49;;;;;;;0.38;0.38;;;19.20;99.90;;;;;;4949845;28;20092;-75
2022/07/17 09:21:22;;;;;;;0.20;0.20;;;19.10;99.90;;;;;;4951362;28;20047;-74
2022/07/17 09:24:17;;;;;;;0.20;0.20;;;19.10;99.90;;;;;;4949789;28;20078;-73
2022/07/17 09:26:44;;;;;;;0.30;0.30;;;19.20;99.90;;;;;;4941659;28;20062;-72
2022/07/17 09:29:12;;;;;;;0.30;0.30;;;19.30;99.90;;;;;;4959282;28;20047;-74
2022/07/17 09:31:38;;;;;;;0.20;0.20;;;19.60;99.90;;;;;;4934640;28;20055;-74
2022/07/17 09:34:16;;;;;;;0.30;0.30;;;19.50;99.90;;;;;;4946473;28;20192;-75
2022/07/17 09:36:42;;;;;;;0.30;0.30;;;19.60;99.90;;;;;;4949658;28;20051;-76
2022/07/17 09:39:08;;;;;;;;;;;19.50;99.90;;;;;;4943785;28;20042;-72
2022/07/17 09:41:34;;;;;;;0.20;0.20;;;19.50;99.90;;;;;;4943703;28;19925;-74
2022/07/17 09:44:00;;;;;;;;;;;19.50;99.90;;;;;;4950320;28;20366;-73
2022/07/17 09:46:30;;;;;;;0.30;0.30;;;19.60;99.90;;;;;;4934438;29;19976;-76
2022/07/17 09:49:09;;;;;;;0.20;0.20;;;19.70;99.90;;;;;;4949319;28;20047;-76
2022/07/17 09:51:38;;;;;;;0.32;0.32;;;19.90;99.90;;;;;;4935329;28;20093;-74
2022/07/17 09:54:05;;;;;;;0.30;0.30;;;19.90;99.90;;;;;;4961972;28;20500;-76
2022/07/17 09:56:36;;;;;;;0.22;0.22;;;19.90;99.90;;;;;;4957739;28;20089;-76
2022/07/17 09:59:11;;;;;;;0.30;0.30;;;20.00;99.90;;;;;;4952697;28;20490;-73
2022/07/17 10:01:39;;;;;;;0.28;0.28;;;20.10;99.90;;;;;;4953952;28;20039;-76
2022/07/17 10:04:06;;;;;;;0.20;0.20;;;20.30;99.90;;;;;;4950001;28;20039;-75
2022/07/17 10:06:32;;;;;;;0.30;0.30;;;20.30;99.90;;;;;;4956666;28;20104;-76
2022/07/17 10:08:58;;;;;;;0.28;0.28;;;20.40;99.90;;;;;;4949996;28;20043;-76
2022/07/17 10:11:29;;;;;;;0.30;0.30;;;20.60;99.90;;;;;;4948897;28;20463;-75
2022/07/17 10:14:00;;;;;;;0.30;0.30;;;20.50;99.90;;;;;;4955880;28;20394;-76
2022/07/17 10:16:28;;;;;;;0.65;0.65;;;20.40;99.90;;;;;;4960421;28;20046;-75
2022/07/17 10:18:57;;;;;;;0.50;0.50;;;20.50;99.90;;;;;;4950280;28;20242;-74
2022/07/17 10:21:24;;;;;;;0.20;0.20;;;20.60;99.90;;;;;;4934424;28;20047;-73
2022/07/17 10:23:52;;;;;;;0.40;0.40;;;20.50;99.90;;;;;;4953237;28;20407;-73
2022/07/17 10:26:36;;;;;;;0.22;0.22;;;20.60;99.90;;;;;;4956453;28;20043;-75
2022/07/17 10:29:03;;;;;;;0.25;0.25;;;20.60;99.90;;;;;;4953539;28;20492;-74
2022/07/17 10:31:30;;;;;;;0.30;0.30;;;20.80;99.90;;;;;;4949810;28;20039;-74
2022/07/17 10:34:01;;;;;;;0.30;0.30;;;21.00;99.90;;;;;;4963592;28;20051;-75
2022/07/17 10:36:41;;;;;;;0.30;0.30;;;21.10;99.90;;;;;;4950296;28;20047;-75
2022/07/17 10:39:15;;;;;;;0.20;0.20;;;21.10;99.90;;;;;;4956943;28;20427;-76
2022/07/17 10:41:42;;;;;;;0.30;0.30;;;21.10;99.90;;;;;;4957049;28;20043;-73
2022/07/17 10:44:08;;;;;;;0.28;0.28;;;21.00;99.90;;;;;;4955827;28;20081;-76
2022/07/17 10:46:34;;;;;;;0.30;0.30;;;21.00;99.90;;;;;;4952086;28;20504;-76
2022/07/17 10:49:04;;;;;;;0.20;0.20;;;20.90;99.90;;;;;;4941893;28;20464;-76
2022/07/17 10:51:35;;;;;;;0.20;0.20;;;21.00;99.90;;;;;;4956557;28;20050;-74
2022/07/17 10:54:01;;;;;;;0.20;0.20;;;21.20;99.90;;;;;;4952546;28;20103;-74
2022/07/17 10:56:31;;;;;;;0.30;0.30;;;21.40;99.90;;;;;;4953532;28;20080;-74
2022/07/17 10:59:02;;;;;;;0.30;0.30;;;21.70;99.90;;;;;;4953328;28;20054;-74
2022/07/17 11:01:28;;;;;;;0.22;0.22;;;22.10;99.90;;;;;;4955057;28;20515;-74
2022/07/17 11:03:55;;;;;;;0.30;0.30;;;22.10;99.90;;;;;;4965107;28;20053;-75
2022/07/17 11:06:34;;;;;;;0.20;0.20;;;22.10;99.90;;;;;;4962533;28;20122;-75
2022/07/17 11:09:11;;;;;;;6.82;1.95;;;22.10;99.50;;;;;;4962958;28;20050;-77
2022/07/17 11:11:49;;;;;;;0.32;0.32;;;22.10;99.90;;;;;;4958512;28;20051;-76
2022/07/17 11:14:26;;;;;;;0.20;0.20;;;22.10;99.90;;;;;;4957436;28;20042;-75
2022/07/17 11:16:58;;;;;;;0.30;0.30;;;22.10;99.90;;;;;;4946476;28;20472;-75
2022/07/17 11:19:38;;;;;;;0.38;0.38;;;22.10;99.90;;;;;;4963125;28;20113;-72
2022/07/17 11:22:07;;;;;;;0.30;0.30;;;22.30;99.90;;;;;;4959645;28;20051;-73
2022/07/17 11:24:43;;;;;;;2.95;0.75;;;22.30;99.90;;;;;;4945052;28;20097;-74
2022/07/17 11:27:26;;;;;;;0.43;0.43;;;22.30;99.90;;;;;;4958428;28;20046;-74
2022/07/17 11:29:54;;;;;;;0.30;0.30;;;22.30;99.90;;;;;;4958586;28;20039;-75
2022/07/17 11:32:22;;;;;;;0.20;0.20;;;22.40;99.40;;;;;;4952328;28;20031;-74
2022/07/17 11:34:48;;;;;;;0.30;0.30;;;22.40;99.20;;;;;;4952872;28;20077;-73
2022/07/17 11:37:15;;;;;;;0.38;0.38;;;22.50;99.90;;;;;;4966166;28;20361;-75
2022/07/17 11:39:46;;;;;;;0.45;0.45;;;22.60;99.80;;;;;;4958742;28;20039;-76
2022/07/17 11:42:15;;;;;;;0.30;0.30;;;22.60;98.10;;;;;;4953117;28;20490;-73
2022/07/17 11:44:41;;;;;;;0.52;0.50;;;22.40;99.40;;;;;;4953137;28;20414;-75
2022/07/17 11:47:08;;;;;;;0.30;0.30;;;22.40;97.80;;;;;;4959742;28;20111;-74
2022/07/17 11:49:37;;;;;;;0.25;0.25;;;22.40;98.10;;;;;;4942276;28;20053;-75
2022/07/17 11:52:14;;;;;;;0.30;0.30;;;22.60;99.90;;;;;;4954470;28;20052;-75
2022/07/17 11:54:50;;;;;;;0.25;0.25;;;22.90;99.90;;;;;;4960169;28;20042;-76
2022/07/17 11:57:26;;;;;;;0.30;0.30;;;23.10;99.20;;;;;;4984220;28;20050;-75
2022/07/17 12:00:04;;;;;;;0.20;0.20;;;23.30;98.70;;;;;;4953050;28;20073;-75
2022/07/17 12:02:31;;;;;;;0.20;0.20;;;23.50;97.70;;;;;;4946227;28;20370;-76
2022/07/17 12:04:59;;;;;;;0.25;0.25;;;23.60;97.30;;;;;;4966155;28;20090;-75
2022/07/17 12:07:37;;;;;;;0.45;0.45;;;23.50;96.70;;;;;;4958358;28;20051;-75
2022/07/17 12:10:15;;;;;;;0.57;0.57;;;23.70;99.20;;;;;;4968825;28;20464;-75
2022/07/17 12:12:59;;;;;;;0.20;0.20;;;24.00;97.60;;;;;;4962969;28;20051;-73
2022/07/17 12:15:38;;;;;;;0.20;0.20;;;24.30;95.90;;;;;;4941194;28;20050;-74
2022/07/17 12:18:05;;;;;;;0.30;0.30;;;24.50;94.50;;;;;;4957965;28;20108;-75
2022/07/17 12:20:44;;;;;;;0.32;0.32;;;24.60;92.10;;;;;;4969335;28;20377;-74
2022/07/17 12:23:31;;;;;;;0.20;0.20;;;24.60;94.40;;;;;;4961740;28;20134;-74
2022/07/17 12:26:05;;;;;;;0.30;0.30;;;24.40;94.00;;;;;;4961428;28;20124;-74
2022/07/17 12:28:31;;;;;;;0.30;0.30;;;24.40;92.80;;;;;;4965804;28;20058;-75
2022/07/17 12:30:57;;;;;;;0.13;0.13;;;24.40;93.30;;;;;;4956391;28;20035;-75
2022/07/17 12:33:22;;;;;;;0.28;0.28;;;24.60;91.80;;;;;;4959349;28;20057;-74
2022/07/17 12:35:48;;;;;;;0.20;0.20;;;24.70;92.30;;;;;;4957425;28;20040;-75
2022/07/17 12:38:13;;;;;;;0.52;0.52;;;24.90;92.60;;;;;;4967168;28;20067;-72
2022/07/17 12:40:41;;;;;;;0.40;0.40;;;25.00;90.70;;;;;;4970623;28;20047;-74
2022/07/17 12:43:08;;;;;;;0.25;0.25;;;25.00;88.80;;;;;;4962187;28;20158;-74
2022/07/17 12:45:34;;;;;;;0.35;0.35;;;24.90;86.70;;;;;;4962372;28;20455;-73
2022/07/17 12:48:00;;;;;;;0.32;0.32;;;24.90;88.00;;;;;;4959108;28;20027;-74
2022/07/17 12:50:26;;;;;;;0.70;0.70;;;24.90;86.10;;;;;;4964871;28;20445;-74
2022/07/17 12:52:52;;;;;;;0.82;0.50;;;25.00;84.70;;;;;;4964856;28;20049;-75
2022/07/17 12:55:17;;;;;;;0.20;0.20;;;25.00;83.60;;;;;;4958451;28;20035;-74
2022/07/17 12:57:43;;;;;;;0.38;0.38;;;25.10;82.00;;;;;;4966877;28;20081;-74
2022/07/17 13:00:11;;;;;;;0.85;0.82;;;25.00;83.30;;;;;;4965036;28;20158;-75
2022/07/17 13:02:37;;;;;;;0.75;0.75;;;25.00;82.50;;;;;;4962134;28;20104;-75
2022/07/17 13:05:04;;;;;;;0.55;0.38;;;25.40;84.40;;;;;;4934183;28;20038;-74